Time;durP1;ratioP1;P1;durP2;ratioP2;P2;SDS_P1;SDS_P2;PMS_P1;PMS_P2;Temp;Humidity;BMP_temperature;BMP_pressure;BME280_temperature;BME280_humidity;BME280_pressure;Samples;Min_cycle;Max_cycle;Signal;HPM_P1;HPM_P2
2021/07/01 00:00:13;;;;;;;26.20;16.03;;;;;;;17.50;97.59;100576.59;4968549;28;20051;-75
2021/07/01 00:02:39;;;;;;;23.83;17.35;;;;;;;17.50;97.23;100571.19;4968529;28;20035;-74
2021/07/01 00:05:06;;;;;;;29.42;18.70;;;;;;;17.52;97.49;100569.09;4968492;28;20051;-74
2021/07/01 00:07:32;;;;;;;24.88;15.65;;;;;;;17.47;97.33;100567.03;4969002;28;20368;-74
2021/07/01 00:09:57;;;;;;;31.03;16.90;;;;;;;17.50;97.00;100561.22;4969462;28;20084;-74
2021/07/01 00:12:23;;;;;;;25.93;18.20;;;;;;;17.54;97.28;100566.22;4968500;28;20682;-75
2021/07/01 00:14:48;;;;;;;23.87;17.07;;;;;;;17.49;97.18;100564.97;4968419;28;20484;-74
2021/07/01 00:17:13;;;;;;;26.83;17.83;;;;;;;17.48;96.90;100562.47;4968138;28;20079;-74
2021/07/01 00:19:39;;;;;;;27.60;18.37;;;;;;;17.52;97.38;100564.53;4954855;28;20039;-74
2021/07/01 00:22:04;;;;;;;27.50;17.03;;;;;;;17.50;97.31;100560.38;4971555;28;20039;-74
2021/07/01 00:24:30;;;;;;;24.90;18.00;;;;;;;17.51;97.49;100567.44;4972609;28;20066;-74
2021/07/01 00:26:55;;;;;;;26.53;17.53;;;;;;;17.56;97.52;100573.03;4972308;28;20050;-74
2021/07/01 00:29:20;;;;;;;22.27;16.47;;;;;;;17.61;97.80;100567.00;4971660;28;20363;-74
2021/07/01 00:31:46;;;;;;;27.40;17.40;;;;;;;17.61;97.52;100565.13;4972466;28;20095;-74
2021/07/01 00:34:11;;;;;;;29.27;17.33;;;;;;;17.60;97.75;100566.16;4971639;28;20038;-74
2021/07/01 00:36:37;;;;;;;28.53;18.23;;;;;;;17.57;97.40;100563.88;4955058;28;20414;-74
2021/07/01 00:39:03;;;;;;;27.77;18.13;;;;;;;17.60;97.45;100563.47;4972359;28;20046;-74
2021/07/01 00:41:28;;;;;;;;;;;;;;;17.59;97.73;100556.41;4971832;28;20042;-73
2021/07/01 00:43:54;;;;;;;;;;;;;;;17.57;97.01;100553.09;4972776;28;19917;-74
2021/07/01 00:46:19;;;;;;;23.87;17.57;;;;;;;17.45;97.18;100530.53;4955090;28;19971;-74
2021/07/01 00:48:44;;;;;;;23.80;17.80;;;;;;;17.52;97.09;100550.22;4972264;28;20042;-74
2021/07/01 00:51:10;;;;;;;29.13;15.55;;;;;;;17.46;96.93;100549.19;4971190;28;20365;-75
2021/07/01 00:53:36;;;;;;;22.05;16.75;;;;;;;17.50;97.25;100542.31;4971169;28;20050;-74
2021/07/01 00:56:04;;;;;;;21.33;17.35;;;;;;;17.52;96.89;100542.13;4971985;28;20045;-74
2021/07/01 00:58:30;;;;;;;27.27;17.50;;;;;;;17.52;96.54;100542.94;4971972;28;20110;-74
2021/07/01 01:01:02;;;;;;;30.58;17.83;;;;;;;17.49;96.48;100547.94;4972039;28;20118;-75
2021/07/01 01:03:30;;;;;;;24.50;16.15;;;;;;;17.43;96.45;100544.22;4954993;28;20046;-74
2021/07/01 01:05:56;;;;;;;22.70;16.08;;;;;;;17.51;96.96;100551.25;4954652;28;20068;-74
2021/07/01 01:08:22;;;;;;;26.05;17.83;;;;;;;17.53;97.14;100546.47;4970888;28;20053;-74
2021/07/01 01:10:48;;;;;;;22.55;16.38;;;;;;;17.52;96.82;100550.22;4972090;28;20363;-74
2021/07/01 01:13:33;;;;;;;23.98;16.23;;;;;;;17.49;96.78;100553.34;4971694;28;20071;-75
2021/07/01 01:16:31;;;;;;;26.50;16.67;;;;;;;17.48;96.56;100548.97;4970462;28;20038;-75
2021/07/01 01:18:57;;;;;;;;;;;;;;;17.52;96.91;100547.50;4971219;28;20096;-75
2021/07/01 01:21:23;;;;;;;;;;;;;;;17.45;96.01;100546.72;4971293;28;20335;-75
2021/07/01 01:23:49;;;;;;;24.52;16.98;;;;;;;17.45;96.26;100539.44;4970858;28;19918;-74
2021/07/01 01:26:14;;;;;;;30.50;15.83;;;;;;;17.48;96.35;100547.09;4971475;28;20035;-75
2021/07/01 01:28:47;;;;;;;20.67;14.70;;;;;;;17.52;96.33;100542.13;4971111;28;20372;-74
2021/07/01 01:31:12;;;;;;;23.92;16.70;;;;;;;17.52;96.41;100534.84;4970745;28;20129;-74
2021/07/01 01:33:38;;;;;;;27.27;18.02;;;;;;;17.52;96.86;100540.25;4954706;28;20149;-74
2021/07/01 01:36:04;;;;;;;24.17;17.15;;;;;;;17.53;97.04;100538.38;4971162;28;20034;-74
2021/07/01 01:38:32;;;;;;;30.92;18.15;;;;;;;17.49;96.70;100542.56;4970446;28;20043;-74
2021/07/01 01:41:23;;;;;;;25.80;18.05;;;;;;;17.51;97.44;100541.28;4956942;28;20083;-74
2021/07/01 01:43:48;;;;;;;22.73;16.33;;;;;;;17.53;97.83;100541.06;4970631;28;20035;-75
2021/07/01 01:46:14;;;;;;;23.40;15.10;;;;;;;17.53;97.91;100543.75;4970137;28;20038;-74
2021/07/01 01:48:39;;;;;;;26.75;16.05;;;;;;;17.41;98.58;100542.78;4971414;28;20302;-74
2021/07/01 01:51:05;;;;;;;29.67;17.63;;;;;;;17.32;98.67;100535.94;4954347;28;20039;-75
2021/07/01 01:53:30;;;;;;;21.63;14.68;;;;;;;17.35;98.46;100541.75;4970389;28;20034;-75
2021/07/01 01:55:56;;;;;;;24.10;13.67;;;;;;;17.27;99.12;100545.50;4971017;28;20053;-75
2021/07/01 01:58:21;;;;;;;17.87;13.20;;;;;;;17.20;99.50;100539.28;4971246;28;20043;-75
2021/07/01 02:01:19;;;;;;;30.73;15.65;;;;;;;17.19;100.00;100543.03;4970049;28;20050;-78
2021/07/01 02:03:45;;;;;;;26.08;12.80;;;;;;;17.05;99.77;100525.22;4971621;28;20109;-79
2021/07/01 02:06:25;;;;;;;22.83;15.13;;;;;;;17.08;100.00;100533.72;4969976;28;20782;-77
2021/07/01 02:08:51;;;;;;;25.52;16.33;;;;;;;16.95;100.00;100530.22;4954180;28;20026;-76
2021/07/01 02:11:18;;;;;;;24.73;17.02;;;;;;;16.94;100.00;100525.88;4971011;28;20112;-75
2021/07/01 02:13:43;;;;;;;29.00;18.80;;;;;;;17.00;100.00;100535.81;4970197;28;20448;-74
2021/07/01 02:16:40;;;;;;;22.27;15.60;;;;;;;16.93;100.00;100537.66;4970385;28;20172;-74
2021/07/01 02:19:06;;;;;;;27.50;15.50;;;;;;;16.95;100.00;100533.75;4971060;28;20043;-74
2021/07/01 02:21:32;;;;;;;24.48;17.13;;;;;;;16.96;100.00;100531.88;4969952;28;20037;-75
2021/07/01 02:23:58;;;;;;;29.10;17.60;;;;;;;16.98;100.00;100530.63;4970950;28;20062;-75
2021/07/01 02:26:24;;;;;;;29.75;18.60;;;;;;;16.95;100.00;100532.91;4969466;28;20045;-75
2021/07/01 02:28:49;;;;;;;24.63;16.13;;;;;;;16.98;100.00;100536.03;4969977;28;20031;-75
2021/07/01 02:31:21;;;;;;;38.28;20.52;;;;;;;16.98;100.00;100535.19;4969976;28;20444;-75
2021/07/01 02:33:46;;;;;;;25.73;18.83;;;;;;;17.00;100.00;100542.03;4970814;28;20038;-75
2021/07/01 02:36:11;;;;;;;31.50;19.88;;;;;;;17.02;100.00;100539.13;4969519;28;20035;-75
2021/07/01 02:38:55;;;;;;;38.75;23.25;;;;;;;17.02;100.00;100542.66;4970737;28;20407;-75
2021/07/01 02:41:21;;;;;;;32.55;20.90;;;;;;;17.01;100.00;100540.16;4969610;28;20039;-75
2021/07/01 02:43:48;;;;;;;37.45;23.65;;;;;;;17.01;100.00;100540.16;4953790;28;20053;-75
2021/07/01 02:46:32;;;;;;;36.70;22.08;;;;;;;17.00;100.00;100531.25;4970403;28;20495;-75
2021/07/01 02:48:59;;;;;;;40.15;23.48;;;;;;;17.02;100.00;100549.91;4969521;28;20176;-75
2021/07/01 02:51:25;;;;;;;40.80;24.58;;;;;;;16.99;100.00;100548.44;4970424;28;20519;-75
2021/07/01 02:53:54;;;;;;;43.50;23.60;;;;;;;16.98;100.00;100543.28;4954002;28;20042;-77
2021/07/01 02:56:23;;;;;;;32.03;20.52;;;;;;;16.96;100.00;100539.97;4969413;28;20050;-77
2021/07/01 02:58:49;;;;;;;41.75;23.55;;;;;;;16.88;100.00;100543.72;4953545;28;20035;-79
2021/07/01 03:01:33;;;;;;;36.33;19.80;;;;;;;16.84;100.00;100539.78;4970610;28;20138;-80
2021/07/01 03:04:16;;;;;;;38.97;21.65;;;;;;;16.83;100.00;100536.25;4956029;28;20387;-79
2021/07/01 03:06:43;;;;;;;44.83;22.98;;;;;;;16.86;100.00;100538.53;4954566;28;20464;-81
2021/07/01 03:09:10;;;;;;;35.28;20.98;;;;;;;16.88;100.00;100535.63;4954529;28;20096;-79
2021/07/01 03:11:36;;;;;;;38.92;21.73;;;;;;;16.90;100.00;100536.22;4969538;28;20410;-79
2021/07/01 03:14:02;;;;;;;30.98;19.30;;;;;;;16.82;100.00;100531.06;4969252;28;20034;-79
2021/07/01 03:16:28;;;;;;;33.08;19.60;;;;;;;16.80;100.00;100531.25;4953074;28;20060;-79
2021/07/01 03:18:54;;;;;;;33.75;18.85;;;;;;;16.80;100.00;100533.97;4968960;28;20043;-79
2021/07/01 03:21:38;;;;;;;33.05;20.45;;;;;;;16.80;100.00;100536.66;4970779;28;20108;-80
2021/07/01 03:24:04;;;;;;;29.45;18.88;;;;;;;16.80;100.00;100544.75;4970234;28;20035;-78
2021/07/01 03:26:30;;;;;;;41.22;21.35;;;;;;;16.75;100.00;100531.03;4968777;28;20461;-77
2021/07/01 03:28:55;;;;;;;29.70;19.10;;;;;;;16.78;100.00;100530.59;4969019;28;20051;-77
2021/07/01 03:31:25;;;;;;;32.67;19.10;;;;;;;16.83;100.00;100538.97;4969921;28;20111;-77
2021/07/01 03:33:51;;;;;;;34.43;18.60;;;;;;;16.77;100.00;100539.75;4969749;28;20043;-77
2021/07/01 03:36:16;;;;;;;31.30;20.40;;;;;;;16.76;100.00;100532.69;4968616;28;20121;-76
2021/07/01 03:39:03;;;;;;;29.30;19.05;;;;;;;16.77;100.00;100528.97;4969178;28;20472;-76
2021/07/01 03:41:47;;;;;;;28.60;17.55;;;;;;;16.83;100.00;100533.56;4969192;28;20175;-76
2021/07/01 03:44:14;;;;;;;33.33;19.45;;;;;;;16.82;100.00;100531.88;4968533;28;20098;-76
2021/07/01 03:46:39;;;;;;;32.33;20.20;;;;;;;16.85;100.00;100531.47;4968571;28;20430;-77
2021/07/01 03:49:05;;;;;;;;;;;;;;;16.82;100.00;100533.75;4969254;28;20054;-76
2021/07/01 03:51:37;;;;;;;29.38;19.25;;;;;;;16.84;100.00;100535.22;4969607;28;20017;-76
2021/07/01 03:54:16;;;;;;;32.20;18.55;;;;;;;16.88;100.00;100535.63;4972201;28;20030;-76
2021/07/01 03:56:42;;;;;;;24.97;16.67;;;;;;;16.88;100.00;100539.16;4971742;28;20037;-76
2021/07/01 03:59:15;;;;;;;31.33;19.05;;;;;;;16.87;100.00;100539.34;4972241;28;20038;-76
2021/07/01 04:02:18;;;;;;;26.83;18.38;;;;;;;16.85;100.00;100536.84;4971055;28;20043;-75
2021/07/01 04:04:43;;;;;;;23.70;15.80;;;;;;;16.82;100.00;100537.28;4971213;28;20427;-76
2021/07/01 04:07:09;;;;;;;29.50;17.83;;;;;;;16.81;100.00;100535.63;4954925;28;20043;-75
2021/07/01 04:09:37;;;;;;;28.55;17.45;;;;;;;16.83;100.00;100538.97;4972121;28;20312;-75
2021/07/01 04:12:35;;;;;;;26.45;17.63;;;;;;;16.80;100.00;100539.34;4972726;28;20049;-75
2021/07/01 04:15:20;;;;;;;29.73;18.33;;;;;;;16.81;100.00;100540.19;4971908;28;20425;-75
2021/07/01 04:18:21;;;;;;;25.58;16.13;;;;;;;16.76;100.00;100546.16;4978702;28;20042;-75
2021/07/01 04:21:05;;;;;;;29.65;16.63;;;;;;;16.75;100.00;100544.50;4971709;28;20069;-75
2021/07/01 04:23:49;;;;;;;25.83;17.13;;;;;;;16.77;100.00;100545.13;4972629;28;20500;-75
2021/07/01 04:26:34;;;;;;;28.90;17.50;;;;;;;16.78;100.00;100551.34;4972328;28;20061;-75
2021/07/01 04:29:05;;;;;;;27.08;17.25;;;;;;;16.81;100.00;100543.72;4971576;28;20039;-75
2021/07/01 04:31:33;;;;;;;29.85;18.63;;;;;;;16.80;100.00;100550.13;4971475;28;20482;-75
2021/07/01 04:34:02;;;;;;;27.42;18.13;;;;;;;16.78;100.00;100546.78;4971491;28;20376;-75
2021/07/01 04:36:28;;;;;;;26.60;16.83;;;;;;;16.74;100.00;100550.09;4971178;28;20099;-76
2021/07/01 04:38:54;;;;;;;32.08;18.23;;;;;;;16.75;100.00;100549.91;4971494;28;20035;-75
2021/07/01 04:41:22;;;;;;;30.70;17.50;;;;;;;16.79;100.00;100556.56;4971421;28;20046;-76
2021/07/01 04:43:51;;;;;;;38.05;18.50;;;;;;;16.74;100.00;100545.56;4971417;28;20176;-76
2021/07/01 04:46:18;;;;;;;26.00;16.50;;;;;;;16.74;100.00;100550.94;4971268;28;20027;-77
2021/07/01 04:48:48;;;;;;;28.80;16.80;;;;;;;16.70;100.00;100551.56;4971103;28;20368;-78
2021/07/01 04:51:13;;;;;;;27.63;17.50;;;;;;;16.68;100.00;100557.16;4972243;28;20038;-78
2021/07/01 04:53:57;;;;;;;27.27;16.27;;;;;;;16.67;100.00;100550.94;4971659;28;20368;-79
2021/07/01 04:56:45;;;;;;;24.83;15.75;;;;;;;16.68;100.00;100557.97;4971365;28;20057;-79
2021/07/01 04:59:17;;;;;;;26.75;15.95;;;;;;;16.64;100.00;100562.13;4955609;28;20376;-78
2021/07/01 05:02:05;;;;;;;24.20;16.13;;;;;;;16.67;100.00;100559.03;5008978;28;20125;-78
2021/07/01 05:04:43;;;;;;;28.77;15.50;;;;;;;16.64;100.00;100564.81;4970414;28;20035;-78
2021/07/01 05:07:10;;;;;;;23.98;14.95;;;;;;;16.69;100.00;100561.50;4970837;28;20042;-77
2021/07/01 05:09:39;;;;;;;21.08;13.73;;;;;;;16.62;100.00;100564.22;4971057;28;20023;-77
2021/07/01 05:12:21;;;;;;;24.27;14.18;;;;;;;16.66;100.00;100559.22;4957402;28;20069;-77
2021/07/01 05:14:47;;;;;;;20.58;12.98;;;;;;;16.66;100.00;100564.63;4954980;28;20413;-78
2021/07/01 05:17:13;;;;;;;18.48;12.93;;;;;;;16.66;100.00;100567.31;4970660;28;20571;-77
2021/07/01 05:19:38;;;;;;;23.53;13.73;;;;;;;16.61;100.00;100559.84;4971804;28;20042;-77
2021/07/01 05:22:07;;;;;;;24.20;14.52;;;;;;;16.65;100.00;100562.97;4970754;28;20125;-77
2021/07/01 05:25:02;;;;;;;20.15;13.85;;;;;;;16.64;100.00;100562.13;4974697;28;20038;-78
2021/07/01 05:27:45;;;;;;;22.63;14.55;;;;;;;16.73;100.00;100559.25;4970823;28;20487;-78
2021/07/01 05:30:29;;;;;;;18.50;13.50;;;;;;;16.76;100.00;100562.34;4970946;28;20085;-77
2021/07/01 05:33:13;;;;;;;24.08;12.63;;;;;;;16.76;100.00;100565.03;4971855;28;20057;-79
2021/07/01 05:35:46;;;;;;;25.83;13.02;;;;;;;16.83;100.00;100565.06;4955037;28;20134;-77
2021/07/01 05:38:12;;;;;;;17.83;12.27;;;;;;;16.88;100.00;100563.41;4953927;28;20126;-77
2021/07/01 05:40:38;;;;;;;20.10;13.32;;;;;;;16.89;100.00;100545.38;4969906;28;20093;-78
2021/07/01 05:43:04;;;;;;;18.75;11.02;;;;;;;16.96;100.00;100561.53;4969946;28;20483;-77
2021/07/01 05:45:31;;;;;;;22.00;12.90;;;;;;;17.05;100.00;100557.59;4969993;28;20063;-77
2021/07/01 05:47:57;;;;;;;23.13;12.80;;;;;;;17.08;100.00;100557.16;4969717;28;20089;-77
2021/07/01 05:50:22;;;;;;;21.00;12.37;;;;;;;17.09;100.00;100565.06;4970427;28;20062;-77
2021/07/01 05:52:52;;;;;;;17.37;12.10;;;;;;;17.08;100.00;100563.38;4970430;28;20074;-76
2021/07/01 05:55:18;;;;;;;19.90;11.10;;;;;;;17.07;100.00;100563.63;4970204;28;20081;-76
2021/07/01 05:57:43;;;;;;;15.90;10.90;;;;;;;17.12;100.00;100562.97;4971098;28;20117;-76
2021/07/01 06:00:10;;;;;;;16.33;11.67;;;;;;;17.16;100.00;100566.91;4970269;28;20049;-76
2021/07/01 06:02:45;;;;;;;17.63;11.23;;;;;;;17.09;100.00;100564.19;4970454;28;20050;-76
2021/07/01 06:05:11;;;;;;;19.33;10.98;;;;;;;17.05;100.00;100563.00;4971138;28;20419;-75
2021/07/01 06:07:57;;;;;;;17.60;10.02;;;;;;;17.05;99.99;100563.00;4970609;28;20031;-76
2021/07/01 06:10:23;;;;;;;20.27;10.27;;;;;;;17.19;100.00;100553.00;4970234;28;20081;-76
2021/07/01 06:12:49;;;;;;;13.82;9.57;;;;;;;17.16;99.63;100564.19;4970969;28;20039;-76
2021/07/01 06:15:15;;;;;;;13.80;9.27;;;;;;;17.14;98.88;100563.56;4969928;28;20096;-75
2021/07/01 06:17:42;;;;;;;11.77;8.93;;;;;;;17.11;98.47;100570.22;4969734;28;20571;-75
2021/07/01 06:20:10;;;;;;;12.68;8.18;;;;;;;17.11;98.17;100570.22;4954070;28;20125;-76
2021/07/01 06:22:36;;;;;;;12.80;9.13;;;;;;;17.15;98.54;100573.34;4969874;28;20108;-75
2021/07/01 06:25:03;;;;;;;12.90;9.57;;;;;;;17.17;98.04;100573.97;4970000;28;20042;-75
2021/07/01 06:30:03;;;;;;;13.57;7.88;;;;;;;17.27;97.86;100569.78;4970745;28;20031;-75
2021/07/01 06:32:31;;;;;;;16.95;7.38;;;;;;;17.37;97.96;100569.38;4969777;28;20027;-75
2021/07/01 06:34:57;;;;;;;17.90;8.65;;;;;;;17.38;97.65;100570.19;4953707;28;20042;-74
2021/07/01 06:37:23;;;;;;;12.90;8.97;;;;;;;17.44;96.75;100564.78;4970247;28;20325;-74
2021/07/01 06:40:12;;;;;;;11.55;8.90;;;;;;;17.54;97.28;100571.59;4970520;28;20061;-75
2021/07/01 06:42:57;;;;;;;12.07;7.85;;;;;;;17.53;96.99;100578.84;4970523;28;20050;-75
2021/07/01 06:45:42;;;;;;;12.40;7.50;;;;;;;17.25;96.43;100568.34;4970581;28;20120;-75
2021/07/01 06:48:27;;;;;;;12.97;8.20;;;;;;;17.29;97.21;100570.41;4970792;28;20431;-76
2021/07/01 06:51:12;;;;;;;12.93;7.72;;;;;;;17.33;97.12;100570.81;4970475;28;20077;-75
2021/07/01 06:53:56;;;;;;;12.10;8.03;;;;;;;17.55;97.33;100565.16;4969788;28;20115;-76
2021/07/01 06:56:46;;;;;;;14.25;7.63;;;;;;;17.56;96.41;100573.03;4969582;28;20037;-77
2021/07/01 06:59:13;;;;;;;11.55;7.90;;;;;;;17.56;95.34;100570.34;4969207;28;20050;-77
2021/07/01 07:01:39;;;;;;;12.95;8.63;;;;;;;17.56;96.15;100573.03;4969501;28;20104;-77
2021/07/01 07:04:04;;;;;;;;;;;;;;;17.51;95.46;100564.72;4969637;28;20037;-78
2021/07/01 07:06:30;;;;;;;;;;;;;;;17.62;95.98;100574.88;4969518;28;20322;-76
2021/07/01 07:08:57;;;;;;;8.30;5.57;;;;;;;17.60;94.97;100566.16;4952862;28;19914;-75
2021/07/01 07:11:24;;;;;;;8.07;6.43;;;;;;;17.84;93.74;100572.75;4969227;28;20054;-76
2021/07/01 07:13:49;;;;;;;6.78;5.50;;;;;;;17.86;93.72;100567.97;4969907;28;20069;-75
2021/07/01 07:16:16;;;;;;;10.07;5.43;;;;;;;17.82;92.29;100580.25;4968948;28;20047;-75
2021/07/01 07:18:42;;;;;;;8.35;6.63;;;;;;;17.80;93.20;100573.38;4968863;28;20178;-76
2021/07/01 07:21:19;;;;;;;8.20;6.13;;;;;;;17.80;92.75;100581.47;4970208;28;20038;-75
2021/07/01 07:23:53;;;;;;;8.77;6.40;;;;;;;17.76;92.23;100578.34;4969982;28;20057;-75
2021/07/01 07:26:27;;;;;;;8.82;5.93;;;;;;;17.90;92.49;100581.88;4968836;28;20407;-75
2021/07/01 07:28:54;;;;;;;8.32;6.65;;;;;;;17.88;91.69;100586.66;4968748;28;20034;-75
2021/07/01 07:31:31;;;;;;;10.27;6.15;;;;;;;17.95;91.59;100582.03;4969445;28;20051;-75
2021/07/01 07:33:59;;;;;;;10.38;6.15;;;;;;;17.93;90.77;100586.81;4968556;28;20407;-75
2021/07/01 07:36:26;;;;;;;7.53;5.43;;;;;;;18.01;92.00;100583.91;4968120;28;20035;-75
2021/07/01 07:38:52;;;;;;;8.57;6.28;;;;;;;18.11;91.61;100586.94;4968305;28;20677;-75
2021/07/01 07:41:18;;;;;;;7.45;6.35;;;;;;;18.19;90.38;100587.75;4969213;28;20029;-75
2021/07/01 07:43:45;;;;;;;10.35;6.00;;;;;;;18.38;90.70;100588.66;4968168;28;20043;-75
2021/07/01 07:46:11;;;;;;;8.48;6.00;;;;;;;18.46;89.88;100585.72;4968282;28;20050;-75
2021/07/01 07:48:38;;;;;;;11.88;7.63;;;;;;;18.59;89.46;100588.34;4968857;28;20030;-75
2021/07/01 07:51:03;;;;;;;7.88;5.47;;;;;;;18.93;87.42;100589.72;4952483;28;20109;-75
2021/07/01 07:53:35;;;;;;;9.73;7.00;;;;;;;18.70;87.76;100587.59;4968810;28;20066;-75
2021/07/01 07:56:03;;;;;;;9.02;6.25;;;;;;;18.80;87.40;100587.16;4969164;28;20308;-75
2021/07/01 07:58:31;;;;;;;13.45;6.25;;;;;;;18.71;86.41;100593.84;4968561;28;20043;-75
2021/07/01 08:00:58;;;;;;;8.90;6.43;;;;;;;18.62;87.34;100587.06;4969319;28;20353;-75
2021/07/01 08:03:24;;;;;;;12.95;6.05;;;;;;;18.52;87.45;100590.25;4952518;28;20035;-75
2021/07/01 08:05:51;;;;;;;11.68;5.63;;;;;;;18.45;87.93;100589.44;4968327;28;20475;-74
2021/07/01 08:08:17;;;;;;;10.05;6.90;;;;;;;18.32;88.56;100602.00;4968587;28;20472;-75
2021/07/01 08:10:44;;;;;;;13.23;6.82;;;;;;;18.21;89.90;100599.16;4968408;28;20069;-72
2021/07/01 08:13:10;;;;;;;8.45;6.20;;;;;;;18.15;89.53;100600.88;4952235;28;20089;-72
2021/07/01 08:15:38;;;;;;;11.63;5.13;;;;;;;17.99;90.29;100601.38;4969309;28;20035;-72
2021/07/01 08:18:05;;;;;;;7.55;5.85;;;;;;;17.85;90.22;100598.72;4951948;28;20305;-72
2021/07/01 08:20:31;;;;;;;7.25;5.15;;;;;;;17.78;91.00;100602.44;4969260;28;20031;-72
2021/07/01 08:22:57;;;;;;;9.00;6.38;;;;;;;17.81;91.91;100604.75;4968182;28;20039;-72
2021/07/01 08:25:26;;;;;;;9.93;6.60;;;;;;;17.75;91.79;100605.56;4969093;28;20042;-71
2021/07/01 08:27:53;;;;;;;12.23;6.68;;;;;;;17.68;92.07;100606.44;4967912;28;20039;-72
2021/07/01 08:30:21;;;;;;;8.80;6.40;;;;;;;17.66;93.11;100608.50;4968156;28;20035;-72
2021/07/01 08:32:51;;;;;;;9.23;6.82;;;;;;;17.60;93.02;100612.03;4968095;28;20129;-73
2021/07/01 08:35:21;;;;;;;9.75;6.50;;;;;;;17.67;93.29;100622.84;4952163;28;20030;-73
2021/07/01 08:37:49;;;;;;;10.48;6.50;;;;;;;17.59;94.22;100614.97;4967643;28;20039;-73
2021/07/01 08:40:17;;;;;;;11.43;6.75;;;;;;;17.68;93.62;100606.44;4970074;28;20035;-73
2021/07/01 08:42:42;;;;;;;12.63;6.72;;;;;;;17.83;94.02;100614.28;4971304;28;20536;-73
2021/07/01 08:45:11;;;;;;;12.23;6.97;;;;;;;18.02;93.32;100606.31;4972338;28;20091;-73
2021/07/01 08:47:40;;;;;;;8.55;5.53;;;;;;;18.03;93.07;100610.69;4954945;28;20449;-72
2021/07/01 08:50:11;;;;;;;11.90;5.95;;;;;;;18.29;93.75;100613.25;4955354;28;20407;-73
2021/07/01 08:53:10;;;;;;;12.05;7.10;;;;;;;18.36;92.33;100613.22;4972619;28;20146;-81
2021/07/01 08:55:39;;;;;;;8.38;6.00;;;;;;;18.38;91.98;100619.25;4973392;28;20039;-80
2021/07/01 08:58:06;;;;;;;8.05;6.00;;;;;;;18.40;92.00;100617.13;4971736;28;20129;-80
2021/07/01 09:00:38;;;;;;;7.85;6.38;;;;;;;18.38;91.65;100616.53;4956136;28;20345;-79
2021/07/01 09:03:07;;;;;;;8.98;5.75;;;;;;;18.32;91.72;100612.81;4972712;28;20057;-79
2021/07/01 09:05:34;;;;;;;13.20;6.32;;;;;;;18.28;91.26;100611.59;4955557;28;20384;-79
2021/07/01 09:08:05;;;;;;;7.82;5.43;;;;;;;18.33;91.35;100619.03;4972016;28;20066;-79
2021/07/01 09:10:33;;;;;;;7.88;5.63;;;;;;;18.39;91.44;100617.38;4971235;28;20045;-79
2021/07/01 09:13:00;;;;;;;11.63;5.78;;;;;;;18.38;91.41;100616.53;4971818;28;20043;-78
2021/07/01 09:15:27;;;;;;;7.53;5.50;;;;;;;18.33;89.66;100613.63;4970490;28;20042;-78
2021/07/01 09:17:53;;;;;;;12.40;6.43;;;;;;;18.58;88.45;100620.97;4971401;28;20039;-79
2021/07/01 09:20:28;;;;;;;7.30;4.57;;;;;;;18.72;87.58;100622.53;4972563;28;20080;-76
2021/07/01 09:22:56;;;;;;;7.22;4.97;;;;;;;19.03;86.94;100618.16;4974905;28;20121;-72
2021/07/01 09:25:24;;;;;;;9.40;5.15;;;;;;;19.18;87.12;100626.78;4971719;28;20077;-72
2021/07/01 09:27:51;;;;;;;7.63;4.10;;;;;;;19.16;85.24;100624.28;4970377;28;20049;-72
2021/07/01 09:30:19;;;;;;;11.27;4.07;;;;;;;19.72;84.02;100619.81;4970841;28;20039;-73
2021/07/01 09:32:45;;;;;;;6.57;4.10;;;;;;;19.63;82.69;100623.81;4971714;28;20126;-73
2021/07/01 09:35:12;;;;;;;4.75;3.60;;;;;;;19.49;82.57;100625.03;4970620;28;20041;-77
2021/07/01 09:37:42;;;;;;;6.60;4.25;;;;;;;19.66;84.34;100623.38;4970411;28;20053;-77
2021/07/01 09:40:19;;;;;;;7.32;3.38;;;;;;;20.01;83.86;100628.19;4971554;28;20042;-77
2021/07/01 09:42:51;;;;;;;5.07;3.53;;;;;;;20.01;82.33;100626.31;4970604;28;20070;-76
2021/07/01 09:45:20;;;;;;;7.38;2.90;;;;;;;19.91;81.14;100631.44;4970570;28;20038;-76
2021/07/01 09:47:50;;;;;;;5.65;3.65;;;;;;;19.93;81.07;100633.94;4970376;28;20108;-76
2021/07/01 09:50:16;;;;;;;3.75;3.45;;;;;;;20.18;80.16;100631.97;4970126;28;20027;-76
2021/07/01 09:52:43;;;;;;;5.83;3.63;;;;;;;20.18;80.38;100633.81;4971331;28;20045;-76
2021/07/01 09:55:10;;;;;;;5.93;3.38;;;;;;;20.27;79.69;100635.16;4970326;28;20100;-76
2021/07/01 09:57:45;;;;;;;2.90;2.63;;;;;;;20.31;75.90;100630.13;4953991;28;20063;-75
2021/07/01 10:00:13;;;;;;;3.92;2.88;;;;;;;20.45;77.18;100634.28;4954113;28;20448;-75
2021/07/01 10:02:43;;;;;;;5.15;2.67;;;;;;;20.37;77.81;100640.03;4954975;28;20703;-76
2021/07/01 10:05:25;;;;;;;4.00;2.97;;;;;;;20.16;76.99;100639.47;4971226;28;20049;-75
2021/07/01 10:07:51;;;;;;;6.53;3.40;;;;;;;20.32;77.87;100638.03;4969983;28;20829;-75
2021/07/01 10:10:16;;;;;;;10.00;2.90;;;;;;;20.61;76.31;100647.22;4971232;28;20027;-76
2021/07/01 10:12:57;;;;;;;4.68;3.10;;;;;;;20.61;75.03;100652.66;4954141;28;20030;-76
2021/07/01 10:15:30;;;;;;;3.00;2.63;;;;;;;20.65;74.89;100642.19;4971108;28;20043;-76
2021/07/01 10:18:10;;;;;;;2.95;2.70;;;;;;;20.65;74.25;100643.00;4969734;28;20049;-76
2021/07/01 10:20:48;;;;;;;3.03;2.67;;;;;;;21.23;73.59;100643.31;4970806;28;20046;-76
2021/07/01 10:23:20;;;;;;;4.18;2.72;;;;;;;20.95;72.08;100652.97;4968470;28;20842;-75
2021/07/01 10:25:48;;;;;;;2.97;2.60;;;;;;;20.63;73.79;100655.97;4969245;28;20038;-75
2021/07/01 10:28:16;;;;;;;5.55;2.50;;;;;;;20.56;73.38;100654.41;4969583;28;20368;-75
2021/07/01 10:30:42;;;;;;;6.10;2.92;;;;;;;20.34;74.54;100656.75;4953857;28;20249;-75
2021/07/01 10:33:25;;;;;;;6.53;3.10;;;;;;;20.71;74.28;100667.53;4953729;28;20035;-75
2021/07/01 10:35:52;;;;;;;5.07;3.35;;;;;;;21.16;70.65;100654.28;4970570;28;20038;-75
2021/07/01 10:38:18;;;;;;;5.40;2.58;;;;;;;21.94;70.37;100644.13;4969594;28;20046;-76
2021/07/01 10:40:46;;;;;;;3.80;2.58;;;;;;;22.97;68.58;100652.31;4969633;28;20113;-75
2021/07/01 10:43:15;;;;;;;4.97;2.83;;;;;;;22.51;68.86;100646.88;4953459;28;20050;-76
2021/07/01 10:45:58;;;;;;;3.20;2.40;;;;;;;22.32;67.66;100650.88;4953636;28;20542;-75
2021/07/01 10:48:25;;;;;;;2.83;2.40;;;;;;;21.54;69.01;100653.03;4969728;28;20526;-76
2021/07/01 10:50:53;;;;;;;4.95;2.80;;;;;;;21.14;69.85;100653.72;4969646;28;20043;-76
2021/07/01 10:53:34;;;;;;;3.53;2.53;;;;;;;20.73;72.36;100654.56;4953401;28;20038;-75
2021/07/01 10:56:40;;;;;;;2.85;2.50;;;;;;;20.61;72.57;100657.25;4969387;28;20038;-76
2021/07/01 10:59:06;;;;;;;7.05;2.58;;;;;;;20.66;71.31;100657.38;4965803;28;20043;-76
2021/07/01 11:01:34;;;;;;;;;;;;;;;20.87;72.19;100667.69;4968689;28;20034;-76
2021/07/01 11:04:05;;;;;;;3.22;2.42;;;;;;;20.58;72.27;100661.25;4969430;28;20347;-76
2021/07/01 11:06:30;;;;;;;4.22;2.80;;;;;;;20.66;74.08;100662.81;4968414;28;20034;-75
2021/07/01 11:08:56;;;;;;;5.40;2.90;;;;;;;20.44;70.91;100660.59;4969606;28;20027;-75
2021/07/01 11:11:23;;;;;;;2.75;2.35;;;;;;;21.59;70.66;100668.63;4968878;28;20031;-75
2021/07/01 11:13:59;;;;;;;3.20;2.47;;;;;;;22.67;67.05;100658.88;4969208;28;20368;-76
2021/07/01 11:16:37;;;;;;;7.45;2.42;;;;;;;23.13;65.65;100659.69;4970076;28;20179;-76
2021/07/01 11:19:03;;;;;;;4.50;3.28;;;;;;;23.38;65.33;100658.41;4970003;28;20103;-75
2021/07/01 11:21:29;;;;;;;3.75;2.30;;;;;;;22.94;62.99;100669.09;4969262;28;20046;-75
2021/07/01 11:24:14;;;;;;;4.20;3.40;;;;;;;22.30;67.39;100675.56;4970038;28;20129;-75
2021/07/01 11:26:45;;;;;;;3.92;2.72;;;;;;;22.20;67.81;100674.53;4968748;28;20042;-75
2021/07/01 11:29:10;;;;;;;4.32;3.20;;;;;;;22.01;68.84;100673.84;4953067;28;20045;-75
2021/07/01 11:31:39;;;;;;;4.82;2.97;;;;;;;22.40;66.96;100679.56;4969061;28;20034;-75